N75RA LIPZ-LIRF
Flight info
| Callsign | N75RA |
|---|---|
| Flight time | 0h 43m |
| Altitude | 41000 |
| Route | CHI6Q/22L CHI DCT DIPVO DCT NIKMA DCT RITEB |
| Aircraft | C700/M-SBDGHM1RWXY/LB2 |
Departure
| Time | 2026-02-19 14:44 |
|---|---|
| Airport | Venice Marco Polo Airport (LIPZ) |
Arrival
| Time | 2026-02-19 15:27 |
|---|---|
| Airport | Rome–Fiumicino Leonardo da Vinci International Airport (LIRF) |
| Time | Latitude | Longitude | Altitude | Speed | Heading |
|---|---|---|---|---|---|
| 2026-02-19 14:29 | 45.50721 | 12.34340 | 10 ft | 0 kts | 76° |
| 2026-02-19 14:34 | 45.50717 | 12.34318 | 37 ft | 2 kts | 77° |
| 2026-02-19 14:34 | 45.50714 | 12.34295 | 10 ft | 2 kts | 78° |
| 2026-02-19 14:35 | 45.50710 | 12.34272 | 10 ft | 2 kts | 81° |
| 2026-02-19 14:35 | 45.50708 | 12.34249 | 10 ft | 2 kts | 89° |
| 2026-02-19 14:35 | 45.50712 | 12.34227 | 10 ft | 1 kts | 125° |
| 2026-02-19 14:35 | 45.50713 | 12.34224 | 10 ft | 0 kts | 129° |
| 2026-02-19 14:38 | 45.50676 | 12.34285 | 10 ft | 14 kts | 137° |
| 2026-02-19 14:39 | 45.50604 | 12.34393 | 10 ft | 16 kts | 129° |
| 2026-02-19 14:39 | 45.50521 | 12.34526 | 10 ft | 17 kts | 133° |
| 2026-02-19 14:39 | 45.50446 | 12.34646 | 10 ft | 10 kts | 123° |
| 2026-02-19 14:39 | 45.50445 | 12.34745 | 10 ft | 15 kts | 50° |
| 2026-02-19 14:40 | 45.50549 | 12.34883 | 8 ft | 25 kts | 43° |
| 2026-02-19 14:40 | 45.50849 | 12.35272 | 11 ft | 32 kts | 42° |
| 2026-02-19 14:40 | 45.51019 | 12.35490 | 11 ft | 34 kts | 43° |
| 2026-02-19 14:41 | 45.51200 | 12.35723 | 9 ft | 35 kts | 43° |
| 2026-02-19 14:41 | 45.51329 | 12.35889 | 10 ft | 14 kts | 41° |
| 2026-02-19 14:41 | 45.51407 | 12.35991 | 10 ft | 18 kts | 43° |
| 2026-02-19 14:41 | 45.51515 | 12.36128 | 10 ft | 23 kts | 43° |
| 2026-02-19 14:42 | 45.51635 | 12.36282 | 10 ft | 17 kts | 42° |
| 2026-02-19 14:42 | 45.51697 | 12.36405 | 10 ft | 10 kts | 86° |
| 2026-02-19 14:42 | 45.51659 | 12.36529 | 10 ft | 16 kts | 132° |
| 2026-02-19 14:42 | 45.51579 | 12.36569 | 10 ft | 11 kts | 232° |
| 2026-02-19 14:43 | 45.51562 | 12.36541 | 10 ft | 0 kts | 222° |
| 2026-02-19 14:43 | 45.51287 | 12.36184 | 9 ft | 105 kts | 221° |
| 2026-02-19 14:43 | 45.50575 | 12.35245 | 426 ft | 165 kts | 224° |
| 2026-02-19 14:44 | 45.49665 | 12.34001 | 1277 ft | 176 kts | 222° |
| 2026-02-19 14:44 | 45.47873 | 12.31744 | 2804 ft | 186 kts | 224° |
| 2026-02-19 14:44 | 45.46860 | 12.30446 | 3126 ft | 205 kts | 223° |
| 2026-02-19 14:45 | 45.45786 | 12.29087 | 4505 ft | 211 kts | 223° |
| 2026-02-19 14:45 | 45.44666 | 12.27655 | 6107 ft | 220 kts | 221° |
| 2026-02-19 14:45 | 45.43484 | 12.26198 | 7676 ft | 231 kts | 215° |
| 2026-02-19 14:45 | 45.41911 | 12.25492 | 8883 ft | 258 kts | 181° |
| 2026-02-19 14:46 | 45.40097 | 12.25887 | 10442 ft | 268 kts | 171° |
| 2026-02-19 14:46 | 45.38156 | 12.26285 | 11801 ft | 291 kts | 177° |
| 2026-02-19 14:46 | 45.36126 | 12.26380 | 13654 ft | 291 kts | 181° |
| 2026-02-19 14:46 | 45.34075 | 12.26436 | 15320 ft | 297 kts | 180° |
| 2026-02-19 14:47 | 45.32003 | 12.26589 | 16871 ft | 304 kts | 179° |
| 2026-02-19 14:47 | 45.29866 | 12.26748 | 18250 ft | 310 kts | 180° |
| 2026-02-19 14:47 | 45.27694 | 12.26876 | 19405 ft | 314 kts | 180° |
| 2026-02-19 14:47 | 45.25489 | 12.27004 | 20482 ft | 318 kts | 180° |
| 2026-02-19 14:48 | 45.23290 | 12.27142 | 21527 ft | 322 kts | 180° |
| 2026-02-19 14:48 | 45.18766 | 12.27425 | 23543 ft | 328 kts | 180° |
| 2026-02-19 14:48 | 45.16464 | 12.27566 | 24388 ft | 332 kts | 181° |
| 2026-02-19 14:49 | 45.14138 | 12.27709 | 25230 ft | 336 kts | 181° |
| 2026-02-19 14:49 | 45.11788 | 12.27854 | 26063 ft | 340 kts | 181° |
| 2026-02-19 14:49 | 45.09411 | 12.28001 | 26895 ft | 344 kts | 181° |
| 2026-02-19 14:49 | 45.07028 | 12.28132 | 27690 ft | 347 kts | 184° |
| 2026-02-19 14:50 | 45.04608 | 12.27998 | 28485 ft | 350 kts | 187° |
| 2026-02-19 14:50 | 45.02150 | 12.27866 | 29303 ft | 354 kts | 186° |
| 2026-02-19 14:50 | 44.99669 | 12.27761 | 30050 ft | 357 kts | 186° |
| 2026-02-19 14:50 | 44.97164 | 12.27635 | 30746 ft | 360 kts | 187° |
| 2026-02-19 14:51 | 44.94674 | 12.27496 | 31438 ft | 363 kts | 187° |
| 2026-02-19 14:51 | 44.92144 | 12.27363 | 32138 ft | 365 kts | 187° |
| 2026-02-19 14:51 | 44.89596 | 12.27234 | 32842 ft | 367 kts | 187° |
| 2026-02-19 14:51 | 44.87029 | 12.27103 | 33540 ft | 369 kts | 187° |
| 2026-02-19 14:52 | 44.84453 | 12.26969 | 34123 ft | 371 kts | 187° |
| 2026-02-19 14:52 | 44.79288 | 12.26701 | 35236 ft | 375 kts | 187° |
| 2026-02-19 14:52 | 44.76672 | 12.26567 | 35787 ft | 377 kts | 188° |
| 2026-02-19 14:53 | 44.74037 | 12.26432 | 36323 ft | 379 kts | 188° |
| 2026-02-19 14:53 | 44.71381 | 12.26295 | 36857 ft | 381 kts | 188° |
| 2026-02-19 14:53 | 44.68723 | 12.26158 | 37385 ft | 383 kts | 188° |
| 2026-02-19 14:53 | 44.66052 | 12.26021 | 37901 ft | 384 kts | 188° |
| 2026-02-19 14:54 | 44.63397 | 12.25885 | 38365 ft | 385 kts | 188° |
| 2026-02-19 14:54 | 44.60708 | 12.25747 | 38749 ft | 387 kts | 188° |
| 2026-02-19 14:54 | 44.58007 | 12.25609 | 39136 ft | 388 kts | 188° |
| 2026-02-19 14:54 | 44.55302 | 12.25471 | 39517 ft | 388 kts | 188° |
| 2026-02-19 14:55 | 44.52631 | 12.25334 | 39897 ft | 389 kts | 188° |
| 2026-02-19 14:55 | 44.49919 | 12.25196 | 40277 ft | 389 kts | 188° |
| 2026-02-19 14:55 | 44.47198 | 12.25057 | 40589 ft | 392 kts | 188° |
| 2026-02-19 14:55 | 44.44441 | 12.24911 | 40593 ft | 403 kts | 188° |
| 2026-02-19 14:56 | 44.41599 | 12.24764 | 40599 ft | 413 kts | 188° |
| 2026-02-19 14:56 | 44.35745 | 12.24471 | 40617 ft | 432 kts | 187° |
| 2026-02-19 14:56 | 44.32693 | 12.24315 | 40622 ft | 441 kts | 187° |
| 2026-02-19 14:57 | 44.26418 | 12.23998 | 40622 ft | 457 kts | 187° |
| 2026-02-19 14:57 | 44.23229 | 12.23838 | 40520 ft | 461 kts | 187° |
| 2026-02-19 14:57 | 44.20053 | 12.23681 | 40056 ft | 457 kts | 187° |
| 2026-02-19 14:58 | 44.16909 | 12.23526 | 39598 ft | 449 kts | 187° |
| 2026-02-19 14:58 | 44.13795 | 12.23368 | 39146 ft | 441 kts | 188° |
| 2026-02-19 14:58 | 44.10793 | 12.23215 | 38685 ft | 435 kts | 188° |
| 2026-02-19 14:58 | 44.07773 | 12.23062 | 38216 ft | 430 kts | 188° |
| 2026-02-19 14:59 | 44.04776 | 12.22909 | 37633 ft | 428 kts | 188° |
| 2026-02-19 14:59 | 44.01800 | 12.22760 | 37077 ft | 425 kts | 188° |
| 2026-02-19 14:59 | 43.98884 | 12.22616 | 36504 ft | 422 kts | 188° |
| 2026-02-19 14:59 | 43.95968 | 12.22470 | 35957 ft | 416 kts | 188° |
| 2026-02-19 15:00 | 43.93093 | 12.22325 | 35438 ft | 412 kts | 188° |
| 2026-02-19 15:00 | 43.87372 | 12.22036 | 34422 ft | 409 kts | 187° |
| 2026-02-19 15:00 | 43.84523 | 12.21895 | 33911 ft | 408 kts | 187° |
| 2026-02-19 15:01 | 43.81722 | 12.21756 | 33375 ft | 406 kts | 187° |
| 2026-02-19 15:01 | 43.78904 | 12.21615 | 32777 ft | 403 kts | 187° |
| 2026-02-19 15:01 | 43.76092 | 12.21474 | 32196 ft | 402 kts | 187° |
| 2026-02-19 15:01 | 43.73299 | 12.21333 | 31629 ft | 400 kts | 187° |
| 2026-02-19 15:02 | 43.70546 | 12.21200 | 31084 ft | 399 kts | 187° |
| 2026-02-19 15:02 | 43.67771 | 12.21062 | 30542 ft | 397 kts | 187° |
| 2026-02-19 15:02 | 43.65013 | 12.20923 | 30012 ft | 394 kts | 187° |
| 2026-02-19 15:02 | 43.62270 | 12.20788 | 29453 ft | 390 kts | 187° |
| 2026-02-19 15:03 | 43.59567 | 12.20654 | 28835 ft | 388 kts | 187° |
| 2026-02-19 15:03 | 43.56838 | 12.20511 | 28629 ft | 405 kts | 187° |
| 2026-02-19 15:03 | 43.53985 | 12.20364 | 28637 ft | 410 kts | 187° |
| 2026-02-19 15:04 | 43.48241 | 12.20091 | 28638 ft | 412 kts | 187° |
| 2026-02-19 15:04 | 43.42573 | 12.19803 | 28677 ft | 396 kts | 187° |
| 2026-02-19 15:04 | 43.39909 | 12.19686 | 28217 ft | 372 kts | 187° |
| 2026-02-19 15:05 | 43.37341 | 12.19553 | 27707 ft | 371 kts | 187° |
| 2026-02-19 15:05 | 43.34739 | 12.19407 | 27200 ft | 373 kts | 187° |
| 2026-02-19 15:05 | 43.32171 | 12.19284 | 26707 ft | 372 kts | 186° |
| 2026-02-19 15:05 | 43.29575 | 12.19163 | 26214 ft | 371 kts | 186° |
| 2026-02-19 15:06 | 43.27000 | 12.19033 | 25767 ft | 368 kts | 186° |
| 2026-02-19 15:06 | 43.24441 | 12.18904 | 25310 ft | 366 kts | 186° |
| 2026-02-19 15:06 | 43.21939 | 12.18782 | 24864 ft | 364 kts | 186° |
| 2026-02-19 15:06 | 43.19404 | 12.18657 | 24316 ft | 362 kts | 185° |
| 2026-02-19 15:07 | 43.16887 | 12.18532 | 23913 ft | 361 kts | 185° |
| 2026-02-19 15:07 | 43.14375 | 12.18407 | 23484 ft | 359 kts | 185° |
| 2026-02-19 15:07 | 43.11913 | 12.18288 | 23041 ft | 358 kts | 185° |
| 2026-02-19 15:07 | 43.09428 | 12.18166 | 22560 ft | 356 kts | 185° |
| 2026-02-19 15:08 | 43.06959 | 12.18044 | 22068 ft | 355 kts | 185° |
| 2026-02-19 15:08 | 43.02015 | 12.17817 | 21171 ft | 353 kts | 185° |
| 2026-02-19 15:08 | 42.99584 | 12.17710 | 20740 ft | 352 kts | 185° |
| 2026-02-19 15:09 | 42.97125 | 12.17595 | 20309 ft | 351 kts | 185° |
| 2026-02-19 15:09 | 42.94681 | 12.17483 | 19872 ft | 351 kts | 185° |
| 2026-02-19 15:09 | 42.92233 | 12.17371 | 19464 ft | 351 kts | 185° |
| 2026-02-19 15:09 | 42.89792 | 12.17263 | 19064 ft | 350 kts | 185° |
| 2026-02-19 15:10 | 42.87379 | 12.17154 | 18669 ft | 349 kts | 184° |
| 2026-02-19 15:10 | 42.85004 | 12.17048 | 18279 ft | 329 kts | 185° |
| 2026-02-19 15:10 | 42.82782 | 12.16950 | 17869 ft | 309 kts | 185° |
| 2026-02-19 15:10 | 42.80706 | 12.16857 | 17649 ft | 287 kts | 185° |
| 2026-02-19 15:11 | 42.78754 | 12.16766 | 16919 ft | 285 kts | 185° |
| 2026-02-19 15:11 | 42.76765 | 12.16670 | 16156 ft | 286 kts | 185° |
| 2026-02-19 15:11 | 42.74771 | 12.16582 | 15397 ft | 286 kts | 185° |
| 2026-02-19 15:11 | 42.72774 | 12.16494 | 14732 ft | 285 kts | 185° |
| 2026-02-19 15:12 | 42.70853 | 12.16541 | 14684 ft | 265 kts | 182° |
| 2026-02-19 15:12 | 42.67401 | 12.16703 | 14247 ft | 236 kts | 183° |
| 2026-02-19 15:12 | 42.65729 | 12.16775 | 13888 ft | 243 kts | 183° |
| 2026-02-19 15:13 | 42.64017 | 12.16855 | 13388 ft | 247 kts | 183° |
| 2026-02-19 15:13 | 42.62284 | 12.16943 | 12839 ft | 250 kts | 183° |
| 2026-02-19 15:13 | 42.60558 | 12.17026 | 12312 ft | 252 kts | 183° |
| 2026-02-19 15:13 | 42.58795 | 12.17112 | 11788 ft | 254 kts | 182° |
| 2026-02-19 15:14 | 42.57025 | 12.17199 | 11274 ft | 255 kts | 182° |
| 2026-02-19 15:14 | 42.55239 | 12.17286 | 10763 ft | 256 kts | 182° |
| 2026-02-19 15:14 | 42.53459 | 12.17374 | 10272 ft | 256 kts | 182° |
| 2026-02-19 15:14 | 42.51673 | 12.17457 | 9776 ft | 256 kts | 183° |
| 2026-02-19 15:15 | 42.49882 | 12.17544 | 9265 ft | 257 kts | 182° |
| 2026-02-19 15:15 | 42.48119 | 12.17629 | 8736 ft | 256 kts | 183° |
| 2026-02-19 15:15 | 42.46362 | 12.17719 | 8551 ft | 244 kts | 183° |
| 2026-02-19 15:15 | 42.44749 | 12.17800 | 8425 ft | 232 kts | 183° |
| 2026-02-19 15:16 | 42.43151 | 12.17871 | 8061 ft | 232 kts | 184° |
| 2026-02-19 15:16 | 42.39914 | 12.18023 | 7331 ft | 232 kts | 184° |
| 2026-02-19 15:16 | 42.38296 | 12.18106 | 6975 ft | 232 kts | 184° |
| 2026-02-19 15:17 | 42.36690 | 12.18183 | 6616 ft | 230 kts | 184° |
| 2026-02-19 15:17 | 42.35084 | 12.18260 | 6248 ft | 231 kts | 184° |
| 2026-02-19 15:17 | 42.33496 | 12.18334 | 5844 ft | 231 kts | 183° |
| 2026-02-19 15:17 | 42.31885 | 12.18414 | 5432 ft | 232 kts | 183° |
| 2026-02-19 15:18 | 42.30263 | 12.18491 | 5024 ft | 234 kts | 184° |
| 2026-02-19 15:18 | 42.28688 | 12.18567 | 4981 ft | 222 kts | 183° |
| 2026-02-19 15:18 | 42.27152 | 12.18642 | 4893 ft | 220 kts | 183° |
| 2026-02-19 15:18 | 42.25613 | 12.18715 | 4562 ft | 222 kts | 183° |
| 2026-02-19 15:19 | 42.24066 | 12.18784 | 4273 ft | 221 kts | 183° |
| 2026-02-19 15:19 | 42.22527 | 12.18862 | 3994 ft | 220 kts | 183° |
| 2026-02-19 15:19 | 42.21028 | 12.18939 | 3987 ft | 217 kts | 183° |
| 2026-02-19 15:19 | 42.19496 | 12.19005 | 3990 ft | 220 kts | 183° |
| 2026-02-19 15:20 | 42.17963 | 12.19076 | 3926 ft | 221 kts | 182° |
| 2026-02-19 15:20 | 42.14895 | 12.19127 | 3915 ft | 221 kts | 186° |
| 2026-02-19 15:20 | 42.13360 | 12.19082 | 3905 ft | 219 kts | 186° |
| 2026-02-19 15:21 | 42.11830 | 12.19077 | 3847 ft | 217 kts | 185° |
| 2026-02-19 15:21 | 42.10302 | 12.19071 | 3442 ft | 222 kts | 185° |
| 2026-02-19 15:21 | 42.09079 | 12.19059 | 3289 ft | 218 kts | 185° |
| 2026-02-19 15:21 | 42.07780 | 12.19049 | 3056 ft | 218 kts | 185° |
| 2026-02-19 15:22 | 42.04760 | 12.19029 | 2494 ft | 218 kts | 186° |
| 2026-02-19 15:22 | 42.03763 | 12.19024 | 2352 ft | 214 kts | 185° |
| 2026-02-19 15:22 | 42.01805 | 12.19056 | 2352 ft | 215 kts | 180° |
| 2026-02-19 15:23 | 42.00318 | 12.19525 | 2337 ft | 220 kts | 167° |
| 2026-02-19 15:23 | 41.99360 | 12.19956 | 2330 ft | 213 kts | 167° |
| 2026-02-19 15:23 | 41.97521 | 12.20708 | 2340 ft | 201 kts | 169° |
| 2026-02-19 15:23 | 41.96240 | 12.21259 | 2285 ft | 188 kts | 168° |
| 2026-02-19 15:24 | 41.93145 | 12.22571 | 1673 ft | 145 kts | 171° |
| 2026-02-19 15:24 | 41.92172 | 12.22959 | 1471 ft | 146 kts | 173° |
| 2026-02-19 15:25 | 41.91203 | 12.23382 | 1279 ft | 146 kts | 171° |
| 2026-02-19 15:25 | 41.90268 | 12.23767 | 1075 ft | 135 kts | 173° |
| 2026-02-19 15:25 | 41.89404 | 12.24128 | 898 ft | 128 kts | 171° |
| 2026-02-19 15:25 | 41.88567 | 12.24486 | 877 ft | 124 kts | 172° |
| 2026-02-19 15:26 | 41.87738 | 12.24828 | 711 ft | 128 kts | 171° |
| 2026-02-19 15:26 | 41.86905 | 12.25182 | 535 ft | 124 kts | 170° |
| 2026-02-19 15:26 | 41.86084 | 12.25544 | 369 ft | 126 kts | 172° |
| 2026-02-19 15:26 | 41.85254 | 12.25882 | 238 ft | 123 kts | 173° |
| 2026-02-19 15:27 | 41.84432 | 12.26225 | 51 ft | 124 kts | 170° |
| 2026-02-19 15:27 | 41.83692 | 12.26536 | 11 ft | 93 kts | 166° |
| 2026-02-19 15:27 | 41.83207 | 12.26732 | 5 ft | 60 kts | 162° |
| 2026-02-19 15:27 | 41.82871 | 12.26858 | 7 ft | 43 kts | 170° |
| 2026-02-19 15:28 | 41.82618 | 12.26845 | 5 ft | 30 kts | 195° |
| 2026-02-19 15:28 | 41.82320 | 12.26784 | 5 ft | 22 kts | 167° |
| 2026-02-19 15:28 | 41.82166 | 12.26840 | 5 ft | 24 kts | 166° |
| 2026-02-19 15:29 | 41.82004 | 12.26912 | 5 ft | 24 kts | 165° |
| 2026-02-19 15:29 | 41.81835 | 12.26981 | 6 ft | 27 kts | 163° |
| 2026-02-19 15:29 | 41.81650 | 12.27060 | 6 ft | 29 kts | 164° |
| 2026-02-19 15:30 | 41.81393 | 12.27167 | 6 ft | 22 kts | 161° |
| 2026-02-19 15:30 | 41.81237 | 12.27234 | 6 ft | 25 kts | 162° |
| 2026-02-19 15:30 | 41.81061 | 12.27307 | 7 ft | 28 kts | 163° |
| 2026-02-19 15:30 | 41.80873 | 12.27342 | 7 ft | 27 kts | 190° |
| 2026-02-19 15:31 | 41.80692 | 12.27284 | 7 ft | 25 kts | 220° |
| 2026-02-19 15:31 | 41.80568 | 12.26905 | 7 ft | 22 kts | 251° |
| 2026-02-19 15:31 | 41.80513 | 12.26706 | 9 ft | 23 kts | 250° |
| 2026-02-19 15:32 | 41.80458 | 12.26505 | 10 ft | 23 kts | 249° |
| 2026-02-19 15:32 | 41.80257 | 12.26411 | 8 ft | 18 kts | 168° |
| 2026-02-19 15:32 | 41.80152 | 12.26430 | 8 ft | 16 kts | 160° |
| 2026-02-19 15:33 | 41.80084 | 12.26602 | 8 ft | 11 kts | 159° |
| 2026-02-19 15:33 | 41.80031 | 12.26621 | 8 ft | 3 kts | 205° |
| 2026-02-19 15:33 | 41.80016 | 12.26589 | 8 ft | 1 kts | 247° |
| 2026-02-19 15:34 | 41.80013 | 12.26580 | 8 ft | 1 kts | 248° |
| 2026-02-19 15:34 | 41.80010 | 12.26567 | 8 ft | 1 kts | 249° |
| 2026-02-19 15:34 | 41.80009 | 12.26565 | 8 ft | 0 kts | 249° |